Time;durP1;ratioP1;P1;durP2;ratioP2;P2;SDS_P1;SDS_P2;PMS_P1;PMS_P2;Temp;Humidity;BMP_temperature;BMP_pressure;BME280_temperature;BME280_humidity;BME280_pressure;Samples;Min_cycle;Max_cycle;Signal;HPM_P1;HPM_P2
2021/01/03 00:00:24;;;;;;;201.67;58.30;;;4.10;95.30;;;;;;4925193;29;20552;-86
2021/01/03 00:03:04;;;;;;;267.40;63.33;;;4.10;95.30;;;;;;4917716;29;20310;-87
2021/01/03 00:05:40;;;;;;;240.20;63.55;;;4.10;95.30;;;;;;4894609;29;20079;-86
2021/01/03 00:08:09;;;;;;;232.45;61.58;;;4.10;95.50;;;;;;4901419;29;20189;-86
2021/01/03 00:10:50;;;;;;;240.48;63.67;;;4.10;95.40;;;;;;4918146;28;20056;-86
2021/01/03 00:13:34;;;;;;;263.77;63.38;;;4.10;95.40;;;;;;4995857;28;20398;-86
2021/01/03 00:16:07;;;;;;;201.13;58.25;;;4.10;95.40;;;;;;5002424;28;20137;-86
2021/01/03 00:18:57;;;;;;;213.95;58.50;;;4.10;95.40;;;;;;4998064;28;20084;-86
2021/01/03 00:21:30;;;;;;;208.10;58.63;;;4.10;95.40;;;;;;4996139;28;20052;-86
2021/01/03 00:24:05;;;;;;;206.52;60.35;;;4.10;95.50;;;;;;4996150;28;20054;-86
2021/01/03 00:26:37;;;;;;;210.52;60.97;;;4.10;95.40;;;;;;5006297;28;20721;-86
2021/01/03 00:29:19;;;;;;;190.68;59.53;;;4.10;95.40;;;;;;5004293;28;20042;-86
2021/01/03 00:32:02;;;;;;;;;;;;;;;;;;;;;
2021/01/03 00:34:31;;;;;;;189.65;60.85;;;4.10;95.40;;;;;;5012815;28;20042;-85
2021/01/03 00:36:58;;;;;;;179.75;58.35;;;4.10;95.40;;;;;;5006178;28;20049;-88
2021/01/03 00:39:23;;;;;;;143.18;55.55;;;4.10;95.40;;;;;;4997006;28;20045;-87
2021/01/03 00:41:50;;;;;;;180.73;59.10;;;4.10;95.40;;;;;;5006514;28;20042;-86
2021/01/03 00:44:17;;;;;;;146.02;55.22;;;4.10;95.30;;;;;;4991135;28;20056;-86
2021/01/03 00:46:43;;;;;;;141.95;55.70;;;4.10;95.30;;;;;;5007504;28;20461;-86
2021/01/03 00:49:09;;;;;;;144.60;55.78;;;4.10;95.30;;;;;;5010192;28;20436;-86
2021/01/03 00:51:36;;;;;;;137.35;55.08;;;4.20;95.30;;;;;;4991431;28;20042;-86
2021/01/03 00:54:02;;;;;;;138.93;53.08;;;4.10;95.20;;;;;;5011318;28;20045;-86
2021/01/03 00:56:28;;;;;;;137.43;54.38;;;4.10;95.20;;;;;;5004986;28;20137;-86
2021/01/03 00:58:54;;;;;;;132.88;53.83;;;4.10;95.20;;;;;;5010802;28;20180;-86
2021/01/03 01:01:21;;;;;;;132.60;55.65;;;4.10;95.10;;;;;;5003927;28;20037;-85
2021/01/03 01:03:47;;;;;;;127.15;54.97;;;4.10;95.10;;;;;;4993742;28;20117;-85
2021/01/03 01:06:14;;;;;;;149.82;57.40;;;4.10;95.10;;;;;;5003114;28;20578;-85
2021/01/03 01:08:40;;;;;;;140.10;55.33;;;4.00;95.10;;;;;;4986674;28;20096;-86
2021/01/03 01:11:11;;;;;;;143.23;56.75;;;4.10;95.10;;;;;;4988419;28;20034;-86
2021/01/03 01:13:39;;;;;;;155.03;56.50;;;4.10;95.10;;;;;;5013630;28;20042;-87
2021/01/03 01:16:09;;;;;;;150.73;57.63;;;4.10;95.10;;;;;;5012666;28;20125;-86
2021/01/03 01:18:35;;;;;;;162.68;59.10;;;4.10;95.10;;;;;;4983176;28;20077;-86
2021/01/03 01:21:02;;;;;;;125.57;54.10;;;4.10;95.10;;;;;;5001839;28;20095;-86
2021/01/03 01:23:28;;;;;;;118.03;51.50;;;4.10;95.10;;;;;;5004797;28;20054;-86
2021/01/03 01:25:54;;;;;;;132.35;55.88;;;4.10;95.10;;;;;;5014420;28;20046;-85
2021/01/03 01:28:20;;;;;;;126.72;54.47;;;4.00;95.00;;;;;;5001786;28;20054;-87
2021/01/03 01:30:45;;;;;;;124.25;54.92;;;4.00;95.00;;;;;;5009414;28;20025;-87
2021/01/03 01:33:11;;;;;;;127.15;53.22;;;4.00;95.00;;;;;;5004443;28;20046;-87
2021/01/03 01:35:37;;;;;;;132.68;55.20;;;4.00;95.00;;;;;;5007185;28;20041;-86
2021/01/03 01:38:04;;;;;;;157.00;57.30;;;4.00;95.00;;;;;;4988827;28;20048;-86
2021/01/03 01:40:36;;;;;;;115.22;52.75;;;4.00;95.00;;;;;;4994152;28;20065;-87
2021/01/03 01:43:04;;;;;;;123.10;53.17;;;3.90;94.90;;;;;;5004149;28;20046;-86
2021/01/03 01:45:34;;;;;;;129.85;57.03;;;4.00;95.00;;;;;;5006764;28;20049;-87
2021/01/03 01:48:22;;;;;;;151.55;57.05;;;4.00;95.10;;;;;;5004001;28;20119;-87
2021/01/03 01:51:05;;;;;;;144.70;56.42;;;4.00;95.10;;;;;;5006656;28;20446;-86
2021/01/03 01:53:53;;;;;;;140.40;55.85;;;4.00;95.10;;;;;;5006958;28;20141;-86
2021/01/03 01:56:22;;;;;;;147.07;57.75;;;4.00;95.10;;;;;;5014155;28;20048;-86
2021/01/03 01:59:28;;;;;;;131.65;54.45;;;4.00;95.10;;;;;;4988429;28;20049;-86
2021/01/03 02:02:02;;;;;;;124.75;51.53;;;3.90;95.00;;;;;;4988998;28;20046;-86
2021/01/03 02:04:30;;;;;;;;;;;3.90;95.00;;;;;;5000993;28;20129;-86
2021/01/03 02:07:29;;;;;;;128.73;54.22;;;3.80;95.10;;;;;;4993109;28;19922;-86
2021/01/03 02:10:18;;;;;;;126.03;53.28;;;3.80;95.20;;;;;;4989146;28;20050;-86
2021/01/03 02:13:00;;;;;;;126.68;53.83;;;3.80;95.20;;;;;;4993865;28;20072;-87
2021/01/03 02:15:29;;;;;;;145.60;53.08;;;3.80;95.20;;;;;;4987220;28;20048;-86
2021/01/03 02:17:55;;;;;;;131.85;53.58;;;3.80;95.20;;;;;;4993507;28;20034;-87
2021/01/03 02:20:25;;;;;;;130.95;54.53;;;3.70;95.20;;;;;;5005185;28;20069;-87
2021/01/03 02:23:00;;;;;;;107.32;48.35;;;3.70;95.10;;;;;;5007379;28;20398;-87
2021/01/03 02:25:26;;;;;;;124.55;49.83;;;3.60;95.10;;;;;;5000938;28;20038;-86
2021/01/03 02:28:05;;;;;;;115.20;50.42;;;3.70;95.20;;;;;;5010160;28;20532;-87
2021/01/03 02:30:31;;;;;;;130.40;50.35;;;3.70;95.10;;;;;;4989748;28;20054;-85
2021/01/03 02:33:16;;;;;;;114.15;48.22;;;3.70;95.10;;;;;;4994310;28;20049;-86
2021/01/03 02:35:44;;;;;;;132.13;52.42;;;3.60;95.10;;;;;;5009087;28;20383;-86
2021/01/03 02:38:14;;;;;;;130.57;52.42;;;3.70;95.10;;;;;;5017403;28;20509;-86
2021/01/03 02:40:40;;;;;;;116.82;50.42;;;3.60;95.10;;;;;;5013975;28;20042;-86
2021/01/03 02:43:06;;;;;;;128.05;53.13;;;3.70;95.20;;;;;;5014755;28;20774;-87
2021/01/03 02:45:32;;;;;;;122.68;51.15;;;3.60;95.10;;;;;;5005081;28;20628;-86
2021/01/03 02:48:06;;;;;;;128.23;53.28;;;3.60;95.20;;;;;;5003420;28;20069;-86
2021/01/03 02:50:32;;;;;;;133.60;54.27;;;3.70;95.20;;;;;;5003421;28;20056;-84
2021/01/03 02:52:58;;;;;;;116.13;50.55;;;3.60;95.20;;;;;;4996781;28;20061;-84
2021/01/03 02:55:24;;;;;;;132.77;54.35;;;3.70;95.20;;;;;;4993083;28;20043;-85
2021/01/03 02:57:50;;;;;;;118.75;52.15;;;3.70;95.30;;;;;;4996688;28;20635;-86
2021/01/03 03:00:34;;;;;;;146.88;55.80;;;3.60;95.30;;;;;;5012035;28;20088;-86
2021/01/03 03:03:00;;;;;;;141.07;56.40;;;3.60;95.30;;;;;;5017105;28;20073;-86
2021/01/03 03:05:29;;;;;;;139.65;55.22;;;3.60;95.30;;;;;;4996882;28;20454;-85
2021/01/03 03:07:55;;;;;;;156.55;56.28;;;3.70;95.30;;;;;;5003179;28;20556;-85
2021/01/03 03:10:22;;;;;;;125.07;52.97;;;3.70;95.30;;;;;;5009274;28;20060;-86
2021/01/03 03:12:50;;;;;;;139.63;55.92;;;3.70;95.30;;;;;;5002564;28;20128;-86
2021/01/03 03:15:18;;;;;;;143.18;55.72;;;3.70;95.20;;;;;;4992719;28;20101;-86
2021/01/03 03:17:44;;;;;;;140.10;55.33;;;3.70;95.30;;;;;;5011219;28;20049;-86
2021/01/03 03:20:13;;;;;;;132.45;55.78;;;3.60;95.30;;;;;;4995530;28;20060;-86
2021/01/03 03:22:39;;;;;;;164.57;56.35;;;3.60;95.30;;;;;;4981419;28;20061;-86
2021/01/03 03:25:07;;;;;;;143.40;53.40;;;3.70;95.30;;;;;;5016458;28;20129;-86
2021/01/03 03:27:33;;;;;;;135.13;54.35;;;3.60;95.30;;;;;;5001693;28;20050;-86
2021/01/03 03:29:58;;;;;;;169.95;58.28;;;3.60;95.30;;;;;;5010777;28;20478;-87
2021/01/03 03:32:24;;;;;;;132.07;53.42;;;3.60;95.30;;;;;;5007996;28;20046;-86
2021/01/03 03:34:50;;;;;;;123.38;53.83;;;3.60;95.40;;;;;;4994227;28;20048;-86
2021/01/03 03:37:16;;;;;;;125.18;53.88;;;3.60;95.30;;;;;;5001670;28;20126;-86
2021/01/03 03:39:42;;;;;;;137.18;55.63;;;3.60;95.30;;;;;;5011274;28;20042;-86
2021/01/03 03:42:08;;;;;;;134.60;54.78;;;3.60;95.30;;;;;;5004821;28;20088;-86
2021/01/03 03:44:34;;;;;;;139.57;56.80;;;3.70;95.30;;;;;;4984806;28;20073;-87
2021/01/03 03:47:02;;;;;;;141.25;54.38;;;3.60;95.30;;;;;;4992323;28;20129;-86
2021/01/03 03:49:29;;;;;;;136.90;56.17;;;3.70;95.30;;;;;;5004524;28;20088;-86
2021/01/03 03:51:58;;;;;;;126.90;55.42;;;3.70;95.20;;;;;;4990380;28;20671;-86
2021/01/03 03:54:24;;;;;;;128.35;54.60;;;3.60;95.20;;;;;;5009636;28;20092;-86
2021/01/03 03:56:55;;;;;;;129.45;52.85;;;3.60;95.30;;;;;;5008475;28;20038;-86
2021/01/03 03:59:22;;;;;;;120.72;52.15;;;3.60;95.20;;;;;;4984583;28;20046;-86
2021/01/03 04:01:48;;;;;;;145.70;56.92;;;3.70;95.30;;;;;;5013530;28;20581;-86
2021/01/03 04:04:14;;;;;;;117.15;51.42;;;3.60;95.30;;;;;;5001084;28;20046;-86
2021/01/03 04:06:40;;;;;;;115.30;52.35;;;3.60;95.20;;;;;;5009257;28;20410;-87
2021/01/03 04:09:07;;;;;;;123.95;52.95;;;3.60;95.30;;;;;;5004284;28;20050;-86
2021/01/03 04:11:38;;;;;;;119.90;53.35;;;3.60;95.30;;;;;;4989921;28;20037;-86
2021/01/03 04:14:08;;;;;;;136.18;55.28;;;3.60;95.20;;;;;;5002241;28;20045;-86
2021/01/03 04:16:33;;;;;;;118.30;52.70;;;3.60;95.20;;;;;;5011549;28;20441;-86
2021/01/03 04:19:00;;;;;;;115.97;50.83;;;3.60;95.30;;;;;;5002597;28;20134;-86
2021/01/03 04:21:27;;;;;;;111.18;51.33;;;3.60;95.20;;;;;;4994684;28;20470;-86
2021/01/03 04:23:53;;;;;;;113.32;50.40;;;3.60;95.20;;;;;;5005464;28;20096;-86
2021/01/03 04:26:20;;;;;;;105.18;52.70;;;3.60;95.20;;;;;;4987435;28;20034;-86
2021/01/03 04:28:55;;;;;;;111.43;51.42;;;3.60;95.20;;;;;;5001821;28;20552;-86
2021/01/03 04:31:21;;;;;;;94.57;49.47;;;3.60;95.30;;;;;;5007419;28;20033;-86
2021/01/03 04:33:47;;;;;;;127.55;55.15;;;3.60;95.30;;;;;;5010038;28;20404;-87
2021/01/03 04:36:17;;;;;;;114.38;52.20;;;3.60;95.20;;;;;;5005140;28;20048;-86
2021/01/03 04:38:43;;;;;;;103.60;50.28;;;3.60;95.20;;;;;;5006130;28;20034;-86
2021/01/03 04:41:12;;;;;;;122.40;54.78;;;3.60;95.10;;;;;;4987122;28;20104;-86
2021/01/03 04:43:38;;;;;;;112.22;51.38;;;3.60;95.10;;;;;;5009511;28;20030;-86
2021/01/03 04:46:10;;;;;;;129.13;54.72;;;3.60;95.10;;;;;;5007051;28;20042;-86
2021/01/03 04:48:38;;;;;;;113.82;53.75;;;3.60;95.10;;;;;;5010067;28;20061;-86
2021/01/03 04:51:11;;;;;;;116.70;52.03;;;3.70;95.20;;;;;;4983123;28;20089;-86
2021/01/03 04:54:03;;;;;;;112.68;55.03;;;3.60;95.20;;;;;;5012475;28;20041;-86
2021/01/03 04:56:41;;;;;;;118.88;53.83;;;3.70;95.10;;;;;;5003346;28;20045;-86
2021/01/03 04:59:31;;;;;;;113.50;53.08;;;3.70;95.20;;;;;;5000701;28;20038;-86
2021/01/03 05:02:03;;;;;;;101.35;51.75;;;3.60;95.20;;;;;;4994105;28;20471;-86
2021/01/03 05:04:38;;;;;;;125.18;56.58;;;3.60;95.10;;;;;;5004144;28;20117;-86
2021/01/03 05:07:33;;;;;;;123.72;56.00;;;3.60;95.10;;;;;;4987938;28;20548;-86
2021/01/03 05:10:17;;;;;;;115.70;54.17;;;3.70;95.20;;;;;;5008331;28;20066;-86
2021/01/03 05:13:02;;;;;;;136.95;56.00;;;3.70;95.10;;;;;;4989562;28;20092;-86
2021/01/03 05:15:36;;;;;;;104.90;52.75;;;3.60;95.10;;;;;;5011749;28;20120;-86
2021/01/03 05:18:04;;;;;;;120.18;54.60;;;3.60;95.20;;;;;;5004566;28;20773;-86
2021/01/03 05:20:31;;;;;;;113.57;55.08;;;3.60;95.20;;;;;;5008783;28;20041;-86
2021/01/03 05:23:19;;;;;;;125.80;56.80;;;3.60;95.10;;;;;;4999635;28;20081;-86
2021/01/03 05:25:47;;;;;;;129.60;55.83;;;3.60;95.20;;;;;;5013414;28;20074;-86
2021/01/03 05:28:23;;;;;;;117.32;55.63;;;3.60;95.20;;;;;;4989772;28;20471;-86
2021/01/03 05:30:49;;;;;;;111.32;54.85;;;3.60;95.10;;;;;;5015723;28;20033;-86
2021/01/03 05:33:31;;;;;;;119.18;57.92;;;3.60;95.10;;;;;;4990755;28;20046;-86
2021/01/03 05:35:56;;;;;;;123.97;56.72;;;3.60;95.10;;;;;;4993241;28;21873;-86
2021/01/03 05:38:38;;;;;;;114.55;56.13;;;3.70;95.10;;;;;;4997037;28;20034;-86
2021/01/03 05:41:20;;;;;;;129.05;59.92;;;3.60;95.10;;;;;;4995720;28;20053;-86
2021/01/03 05:44:12;;;;;;;120.60;57.05;;;3.70;95.10;;;;;;5010131;28;20061;-86
2021/01/03 05:46:50;;;;;;;123.80;57.65;;;3.60;95.10;;;;;;4949085;28;20055;-86
2021/01/03 05:49:24;;;;;;;111.95;58.25;;;3.70;95.10;;;;;;4943572;28;20083;-86
2021/01/03 05:52:23;;;;;;;124.28;56.58;;;3.70;95.10;;;;;;4949850;28;20046;-86
2021/01/03 05:54:51;;;;;;;123.82;59.35;;;3.70;95.20;;;;;;4949622;28;20408;-86
2021/01/03 05:57:30;;;;;;;139.18;61.60;;;3.70;95.20;;;;;;4947235;28;20058;-86
2021/01/03 05:59:56;;;;;;;137.80;60.08;;;3.70;95.20;;;;;;4958345;28;20098;-86
2021/01/03 06:02:29;;;;;;;141.82;62.17;;;3.70;95.20;;;;;;4946587;28;20051;-86
2021/01/03 06:05:07;;;;;;;129.07;59.78;;;3.70;95.20;;;;;;4935694;29;20054;-86
2021/01/03 06:07:37;;;;;;;134.32;61.08;;;3.80;95.20;;;;;;4953499;28;20046;-86
2021/01/03 06:10:30;;;;;;;117.13;58.10;;;3.80;95.20;;;;;;4955041;28;20067;-86
2021/01/03 06:12:57;;;;;;;122.15;60.63;;;3.80;95.10;;;;;;4944552;28;20543;-86
2021/01/03 06:15:23;;;;;;;117.93;58.40;;;3.80;95.10;;;;;;4935906;29;20047;-86
2021/01/03 06:18:01;;;;;;;130.25;61.05;;;3.70;95.10;;;;;;4951661;28;20062;-86
2021/01/03 06:20:29;;;;;;;123.43;58.05;;;3.80;95.10;;;;;;4950895;28;20050;-86
2021/01/03 06:23:16;;;;;;;134.45;59.88;;;3.70;95.10;;;;;;4967816;28;20058;-86
2021/01/03 06:26:04;;;;;;;124.95;60.13;;;3.70;95.10;;;;;;4995264;28;20405;-87
2021/01/03 06:28:51;;;;;;;127.20;59.55;;;3.70;95.10;;;;;;4987697;28;20065;-86
2021/01/03 06:31:42;;;;;;;128.68;62.08;;;3.70;95.10;;;;;;5006353;28;20042;-86
2021/01/03 06:34:13;;;;;;;122.25;58.28;;;3.70;95.10;;;;;;5008488;28;20075;-87
2021/01/03 06:36:47;;;;;;;128.88;59.83;;;3.70;95.10;;;;;;4994004;28;20045;-87
2021/01/03 06:39:34;;;;;;;120.72;54.35;;;3.70;95.10;;;;;;5009284;28;20075;-86
2021/01/03 06:42:03;;;;;;;136.27;61.08;;;3.70;95.10;;;;;;4998938;28;20049;-86
2021/01/03 06:44:59;;;;;;;121.45;57.03;;;3.70;95.10;;;;;;5003165;28;20034;-86
2021/01/03 06:47:49;;;;;;;124.22;58.85;;;3.70;95.00;;;;;;5013182;28;20037;-86
2021/01/03 06:50:37;;;;;;;117.90;57.53;;;3.70;95.00;;;;;;5003298;28;20068;-86
2021/01/03 06:53:33;;;;;;;118.72;58.53;;;3.70;95.10;;;;;;4999076;28;20107;-86
2021/01/03 06:56:36;;;;;;;112.95;55.75;;;3.70;95.00;;;;;;4989293;28;20064;-86
2021/01/03 06:59:14;;;;;;;124.97;57.90;;;3.70;95.00;;;;;;5015053;28;20042;-86
2021/01/03 07:01:41;;;;;;;111.00;54.65;;;3.70;95.00;;;;;;4982431;28;20141;-86
2021/01/03 07:04:24;;;;;;;125.85;59.17;;;3.70;95.00;;;;;;5008338;28;20053;-86
2021/01/03 07:06:51;;;;;;;116.10;57.53;;;3.70;95.00;;;;;;4998036;28;20486;-86
2021/01/03 07:09:17;;;;;;;113.43;56.53;;;3.70;95.30;;;;;;5011657;28;20046;-86
2021/01/03 07:11:56;;;;;;;112.15;54.90;;;3.60;95.00;;;;;;4991154;28;20037;-86
2021/01/03 07:14:23;;;;;;;105.03;53.92;;;3.70;95.00;;;;;;5013103;28;20044;-86
2021/01/03 07:17:04;;;;;;;112.57;55.00;;;3.60;95.00;;;;;;4990159;28;20501;-86
2021/01/03 07:19:29;;;;;;;112.85;52.85;;;3.60;95.00;;;;;;5011589;28;20116;-86
2021/01/03 07:22:03;;;;;;;112.47;57.03;;;3.60;95.00;;;;;;5007523;28;20091;-86
2021/01/03 07:24:57;;;;;;;115.18;54.70;;;3.60;95.00;;;;;;5018679;28;20061;-86
2021/01/03 07:27:34;;;;;;;114.47;53.70;;;3.60;95.00;;;;;;4980743;28;20050;-86
2021/01/03 07:30:03;;;;;;;113.07;56.10;;;3.60;95.00;;;;;;5011945;28;20378;-87
2021/01/03 07:32:37;;;;;;;108.13;54.75;;;3.60;95.00;;;;;;5004429;28;20051;-86
2021/01/03 07:35:08;;;;;;;106.03;52.05;;;3.60;95.00;;;;;;5008679;28;20082;-86
2021/01/03 07:37:35;;;;;;;115.90;54.60;;;3.60;95.00;;;;;;5002822;28;20426;-86
2021/01/03 07:40:09;;;;;;;98.25;54.13;;;3.60;94.90;;;;;;5018012;28;20033;-86
2021/01/03 07:42:56;;;;;;;109.70;53.97;;;3.60;94.90;;;;;;4993058;28;20100;-86
2021/01/03 07:45:34;;;;;;;101.18;51.85;;;3.60;94.90;;;;;;5007033;28;20053;-86
2021/01/03 07:48:01;;;;;;;105.97;51.70;;;3.60;94.90;;;;;;5004175;28;20052;-86
2021/01/03 07:50:37;;;;;;;100.32;53.08;;;3.60;94.90;;;;;;5011997;28;20505;-86
2021/01/03 07:53:24;;;;;;;107.25;55.00;;;3.60;94.90;;;;;;5006849;28;20162;-87
2021/01/03 07:55:49;;;;;;;107.18;53.28;;;3.60;94.90;;;;;;5005606;28;20065;-87
2021/01/03 07:58:19;;;;;;;97.82;52.83;;;3.50;94.90;;;;;;4990834;28;20066;-86
2021/01/03 08:00:53;;;;;;;94.45;50.60;;;3.50;94.80;;;;;;4996516;28;20038;-86
2021/01/03 08:03:24;;;;;;;97.90;50.15;;;3.50;94.80;;;;;;5010737;28;20050;-86
2021/01/03 08:05:51;;;;;;;95.28;49.95;;;3.60;94.80;;;;;;5002520;28;20038;-86
2021/01/03 08:08:26;;;;;;;87.45;48.42;;;3.50;94.80;;;;;;4984033;28;20050;-86
2021/01/03 08:11:24;;;;;;;96.03;50.17;;;3.50;94.70;;;;;;4997302;28;20099;-86
2021/01/03 08:13:58;;;;;;;90.72;47.45;;;3.50;94.70;;;;;;4992333;28;20041;-85
2021/01/03 08:16:28;;;;;;;88.47;48.53;;;3.60;94.80;;;;;;4993495;28;20034;-86
2021/01/03 08:18:58;;;;;;;84.00;46.28;;;3.50;94.70;;;;;;5001702;28;20081;-86
2021/01/03 08:21:26;;;;;;;83.53;45.60;;;3.50;94.70;;;;;;5010484;28;20477;-86
2021/01/03 08:24:03;;;;;;;86.80;46.85;;;3.50;94.60;;;;;;4993416;28;20128;-86
2021/01/03 08:26:37;;;;;;;79.78;46.40;;;3.50;94.60;;;;;;5011712;28;20104;-86
2021/01/03 08:29:22;;;;;;;87.70;48.17;;;3.50;94.60;;;;;;4987291;28;20042;-86
2021/01/03 08:31:54;;;;;;;84.50;46.55;;;3.50;94.60;;;;;;5011712;28;20049;-86
2021/01/03 08:34:42;;;;;;;82.10;47.35;;;3.50;94.60;;;;;;4990400;28;20042;-85
2021/01/03 08:37:27;;;;;;;78.28;44.40;;;3.60;94.60;;;;;;5012914;28;20042;-86
2021/01/03 08:39:59;;;;;;;79.30;42.47;;;3.60;94.60;;;;;;5006516;28;20038;-86
2021/01/03 08:42:37;;;;;;;85.25;46.72;;;3.50;94.60;;;;;;4978635;28;20109;-86
2021/01/03 08:45:30;;;;;;;82.45;45.50;;;3.60;94.60;;;;;;5003064;28;20386;-86
2021/01/03 08:48:00;;;;;;;99.22;47.10;;;3.60;94.60;;;;;;5011879;28;20034;-86
2021/01/03 08:50:46;;;;;;;91.57;47.53;;;3.60;94.60;;;;;;4996331;28;20046;-86
2021/01/03 08:53:28;;;;;;;83.57;43.45;;;3.60;94.60;;;;;;4999830;28;20090;-87
2021/01/03 08:56:06;;;;;;;76.93;44.55;;;3.60;94.50;;;;;;4984176;28;20038;-86
2021/01/03 08:58:35;;;;;;;77.43;44.55;;;3.70;94.50;;;;;;5002705;28;20049;-87
2021/01/03 09:01:03;;;;;;;83.40;46.50;;;3.60;94.50;;;;;;4993202;28;20066;-87
2021/01/03 09:03:31;;;;;;;82.35;45.75;;;3.60;94.40;;;;;;5000332;28;20052;-87
2021/01/03 09:05:58;;;;;;;84.72;45.20;;;3.70;94.40;;;;;;4983268;28;20124;-87
2021/01/03 09:08:33;;;;;;;72.13;43.35;;;3.70;94.40;;;;;;5011638;28;20501;-87
2021/01/03 09:11:18;;;;;;;75.38;43.08;;;3.80;94.40;;;;;;5001244;28;20418;-86
2021/01/03 09:13:52;;;;;;;85.10;45.08;;;3.80;94.40;;;;;;5014171;28;20201;-87
2021/01/03 09:16:45;;;;;;;79.22;43.53;;;3.80;94.30;;;;;;5004188;28;20117;-86
2021/01/03 09:19:22;;;;;;;77.18;44.20;;;3.80;94.30;;;;;;5012542;28;20041;-86
2021/01/03 09:21:58;;;;;;;81.80;46.28;;;3.80;94.20;;;;;;5004733;28;20088;-86
2021/01/03 09:24:30;;;;;;;88.35;45.47;;;3.80;94.20;;;;;;4993413;28;20499;-87
2021/01/03 09:26:58;;;;;;;82.90;46.13;;;3.80;94.20;;;;;;4990070;28;20073;-88
2021/01/03 09:29:36;;;;;;;76.20;42.58;;;3.90;94.20;;;;;;4993261;28;20500;-87
2021/01/03 09:32:25;;;;;;;77.68;43.75;;;3.90;94.30;;;;;;5008199;28;20053;-84
2021/01/03 09:35:29;;;;;;;69.22;41.88;;;3.90;94.10;;;;;;5001000;28;20054;-85
2021/01/03 09:38:28;;;;;;;77.35;44.75;;;3.90;94.00;;;;;;4991508;28;20541;-85
2021/01/03 09:41:02;;;;;;;76.63;44.20;;;3.90;94.10;;;;;;4995099;28;20042;-84
2021/01/03 09:43:50;;;;;;;69.32;42.70;;;3.90;94.00;;;;;;5009424;28;20062;-85
2021/01/03 09:46:16;;;;;;;68.40;40.75;;;3.90;94.00;;;;;;5010935;28;20232;-86
2021/01/03 09:48:42;;;;;;;73.95;42.15;;;3.80;94.00;;;;;;5009633;28;20100;-86
2021/01/03 09:51:24;;;;;;;64.93;38.00;;;3.90;93.90;;;;;;5012418;28;20703;-87
2021/01/03 09:54:02;;;;;;;70.93;40.67;;;3.90;93.80;;;;;;5006190;28;20046;-87
2021/01/03 09:56:34;;;;;;;65.47;37.80;;;3.90;93.70;;;;;;5008319;28;20431;-85
2021/01/03 09:59:11;;;;;;;66.65;40.40;;;3.80;93.60;;;;;;5012538;28;20437;-86
2021/01/03 10:01:38;;;;;;;70.45;40.35;;;3.80;93.70;;;;;;4992816;28;20036;-87
2021/01/03 10:04:29;;;;;;;63.60;38.85;;;3.80;93.60;;;;;;5012978;28;20042;-85
2021/01/03 10:07:31;;;;;;;66.82;40.00;;;3.80;93.60;;;;;;5009219;28;20108;-85
2021/01/03 10:10:06;;;;;;;62.38;35.15;;;3.90;93.70;;;;;;5003644;28;20046;-85
2021/01/03 10:12:40;;;;;;;56.72;34.85;;;3.80;93.60;;;;;;4986543;28;20065;-85
2021/01/03 10:15:25;;;;;;;59.45;36.53;;;3.90;93.70;;;;;;5010050;28;20034;-85
2021/01/03 10:17:58;;;;;;;52.03;33.38;;;3.90;93.60;;;;;;5006736;28;20037;-85
2021/01/03 10:20:35;;;;;;;53.30;35.33;;;3.90;93.40;;;;;;4991078;28;20100;-85
2021/01/03 10:23:01;;;;;;;55.22;34.03;;;3.90;93.40;;;;;;4968913;28;20502;-85
2021/01/03 10:25:31;;;;;;;51.90;32.60;;;3.90;93.30;;;;;;5004539;28;20101;-85
2021/01/03 10:28:14;;;;;;;59.55;36.28;;;4.00;93.40;;;;;;4984856;28;20046;-85
2021/01/03 10:30:43;;;;;;;55.88;34.78;;;4.00;93.30;;;;;;5009840;28;20369;-85
2021/01/03 10:33:16;;;;;;;56.83;35.17;;;4.00;93.30;;;;;;5004934;28;20042;-85
2021/01/03 10:35:42;;;;;;;52.20;33.20;;;4.10;93.20;;;;;;4990874;28;20084;-85
2021/01/03 10:38:08;;;;;;;53.10;32.35;;;4.00;92.70;;;;;;5004463;28;20197;-85
2021/01/03 10:40:35;;;;;;;51.92;32.22;;;4.00;92.80;;;;;;5005884;28;20069;-83
2021/01/03 10:43:01;;;;;;;49.80;32.70;;;4.10;93.00;;;;;;4995743;28;20042;-83
2021/01/03 10:45:27;;;;;;;48.30;33.90;;;4.10;92.70;;;;;;5009389;28;20052;-84
2021/01/03 10:47:53;;;;;;;52.33;33.90;;;4.10;92.70;;;;;;5012231;28;20026;-84
2021/01/03 10:50:21;;;;;;;51.85;33.58;;;4.10;92.80;;;;;;4988279;28;20649;-84
2021/01/03 10:52:47;;;;;;;48.28;32.53;;;4.20;92.70;;;;;;5013606;28;20045;-84
2021/01/03 10:55:14;;;;;;;49.10;32.25;;;4.20;92.70;;;;;;5000963;28;20049;-84
2021/01/03 10:57:40;;;;;;;47.33;32.47;;;4.30;92.60;;;;;;5014004;28;20041;-86
2021/01/03 11:00:08;;;;;;;54.42;31.95;;;4.20;92.40;;;;;;4992490;28;20579;-85
2021/01/03 11:02:35;;;;;;;48.88;31.27;;;4.30;92.20;;;;;;5013567;28;20142;-85
2021/01/03 11:05:01;;;;;;;52.03;32.00;;;4.30;92.30;;;;;;4988488;28;20061;-85
2021/01/03 11:07:28;;;;;;;45.95;29.65;;;4.30;92.20;;;;;;5011084;28;20077;-85
2021/01/03 11:09:54;;;;;;;41.72;27.95;;;4.30;91.80;;;;;;4989743;28;20046;-85
2021/01/03 11:12:20;;;;;;;44.45;29.98;;;4.30;91.80;;;;;;4997942;28;20052;-85
2021/01/03 11:14:53;;;;;;;49.47;31.02;;;4.30;92.20;;;;;;4987111;28;20066;-85
2021/01/03 11:17:19;;;;;;;46.42;29.50;;;4.30;91.90;;;;;;4988587;28;20061;-85
2021/01/03 11:19:45;;;;;;;45.33;29.73;;;4.30;91.80;;;;;;4991802;28;20046;-84
2021/01/03 11:22:15;;;;;;;35.10;22.98;;;4.30;91.90;;;;;;4985730;28;20120;-85
2021/01/03 11:24:42;;;;;;;39.00;25.88;;;4.30;91.50;;;;;;4999795;28;20034;-85
2021/01/03 11:27:16;;;;;;;38.72;25.58;;;4.30;91.60;;;;;;4990549;28;20046;-85
2021/01/03 11:29:42;;;;;;;40.50;23.20;;;4.40;91.70;;;;;;4992463;28;20077;-86
2021/01/03 11:32:15;;;;;;;43.88;26.63;;;4.40;91.50;;;;;;5004097;28;20121;-84
2021/01/03 11:34:42;;;;;;;34.47;22.65;;;4.40;91.60;;;;;;5013702;28;20053;-85
2021/01/03 11:37:14;;;;;;;34.97;22.02;;;4.40;91.50;;;;;;4987615;28;20100;-86
2021/01/03 11:39:40;;;;;;;34.53;23.70;;;4.40;91.00;;;;;;5014543;28;20030;-85
2021/01/03 11:42:10;;;;;;;34.72;22.42;;;4.30;91.10;;;;;;5005458;28;20050;-85
2021/01/03 11:44:37;;;;;;;31.35;21.90;;;4.40;91.00;;;;;;4982060;28;20120;-86
2021/01/03 11:47:11;;;;;;;30.65;20.67;;;4.30;91.00;;;;;;5010550;28;20073;-85
2021/01/03 11:49:37;;;;;;;33.70;21.85;;;4.30;90.80;;;;;;5006024;28;20042;-86
2021/01/03 11:52:05;;;;;;;30.92;21.48;;;4.30;90.90;;;;;;5000273;28;20041;-85
2021/01/03 11:54:34;;;;;;;34.85;21.90;;;4.30;90.90;;;;;;5009032;28;20055;-85
2021/01/03 11:57:01;;;;;;;35.65;21.63;;;4.40;91.10;;;;;;4982299;28;20046;-85
2021/01/03 11:59:28;;;;;;;35.42;23.10;;;4.40;91.20;;;;;;4993519;28;20042;-85
2021/01/03 12:01:58;;;;;;;35.15;22.98;;;4.50;91.10;;;;;;5003015;28;20080;-85
2021/01/03 12:04:24;;;;;;;32.97;22.60;;;4.50;90.90;;;;;;5008988;28;20046;-86
2021/01/03 12:07:16;;;;;;;31.50;20.77;;;4.50;90.90;;;;;;5005149;28;20042;-85
2021/01/03 12:09:43;;;;;;;29.17;19.92;;;4.60;90.70;;;;;;5009043;28;20084;-85
2021/01/03 12:12:11;;;;;;;33.80;20.55;;;4.50;90.30;;;;;;5001846;28;20042;-84
2021/01/03 12:14:36;;;;;;;28.98;20.02;;;4.50;90.40;;;;;;5004987;28;20042;-85
2021/01/03 12:17:06;;;;;;;31.80;20.50;;;4.50;90.50;;;;;;5012304;28;20402;-85
2021/01/03 12:19:32;;;;;;;26.20;19.48;;;4.50;90.60;;;;;;4978654;28;20034;-85
2021/01/03 12:22:00;;;;;;;24.35;17.92;;;4.50;90.40;;;;;;5009393;28;20038;-85
2021/01/03 12:24:26;;;;;;;22.85;17.17;;;4.50;90.30;;;;;;4966541;28;20050;-86
2021/01/03 12:26:52;;;;;;;24.77;16.27;;;4.40;89.80;;;;;;4988216;28;20628;-85
2021/01/03 12:29:20;;;;;;;21.30;14.50;;;4.40;89.50;;;;;;4970584;28;20189;-85
2021/01/03 12:31:49;;;;;;;19.55;13.65;;;4.30;88.90;;;;;;4980227;28;20043;-85
2021/01/03 12:34:18;;;;;;;20.67;14.05;;;4.30;89.00;;;;;;4969374;28;20046;-85
2021/01/03 12:36:44;;;;;;;17.42;12.43;;;4.40;89.10;;;;;;4958189;28;20050;-85
2021/01/03 12:39:11;;;;;;;14.05;10.98;;;4.40;88.40;;;;;;4988677;28;20466;-85
2021/01/03 12:41:37;;;;;;;16.58;11.63;;;4.40;87.80;;;;;;4990560;28;20050;-86
2021/01/03 12:44:10;;;;;;;14.00;10.88;;;4.40;87.60;;;;;;4984096;28;20045;-85
2021/01/03 12:46:39;;;;;;;16.77;11.77;;;4.40;87.00;;;;;;4981348;28;20121;-85
2021/01/03 12:49:06;;;;;;;15.90;11.88;;;4.30;87.50;;;;;;4968808;28;20050;-84
2021/01/03 12:51:33;;;;;;;16.15;12.02;;;4.30;87.90;;;;;;4990295;28;20101;-85
2021/01/03 12:53:59;;;;;;;16.92;11.88;;;4.30;87.70;;;;;;4988949;28;20042;-85
2021/01/03 12:56:26;;;;;;;13.88;10.57;;;4.30;88.20;;;;;;4993853;28;20052;-86
2021/01/03 12:58:59;;;;;;;12.52;9.13;;;4.30;87.60;;;;;;4968073;28;20034;-85
2021/01/03 13:01:29;;;;;;;14.20;10.98;;;4.40;87.10;;;;;;4991508;28;20052;-86